Main page
METAR-TAF:

METAR-TAF

Airports :

Sultan Abdul Halim Airport

Alor Setar, Malaysia

latitude: 06-11-40N, longitude: 100-24-03E, elevation: 5 m

Current weather observation

The report was made 1 hour and 6 minutes ago, at 16:00 UTC
Wind 2 kt from variable directions
Temperature 30°C
Humidity 84%
Pressure 1007 hPa
Visibility 10 km or more
Few clouds at a height of 1700 ft, Cumulonimbus.

METAR: WMKA 181600Z VRB02KT 9999 FEW017CB 30/27 Q1007

Time: 01:06 (17:06 UTC)

Forecast

The report was made 6 hours and 6 minutes ago, at 11:00 UTC
Forecast valid from 18 at 12 UTC to 19 at 12 UTC
Wind 3 kt from variable directions
Visibility: 8000 m
Few clouds at a height of 2800 ft
Temporary
from 19 at 08 UTC to 19 at 12 UTC
Visibility: 5000 m
Few clouds at a height of 1000 ft
Few clouds at a height of 1700 ft, Cumulonimbus.
thunderstorm, rain,

TAF: WMKA 181100Z 1812/1912 VRB03KT 8000 FEW028 TEMPO 1908/1912 5000 TSRA FEW010 FEW017CB

Weather observations and forecasts of more than 4000 airports (METAR and TAF reports).

The available stations are represented by yellow and red dots on the map.

Hover mouse over dot to see the name of the station.

Then click to see weather observations and forecasts.

To change the map : click on the green buttons with a black cross to zoom in, on the green button with a dash to zoom out, or on the green arrows for adjacent maps.


METAR-TAF: